sensor_id;sensor_type;location;lat;lon;timestamp;pressure;altitude;pressure_sealevel;temperature;humidity
64362;BME280;50685;53.346;-6.296;2023-04-12T00:00:32;98901.16;;;3.24;81.88
64362;BME280;50685;53.346;-6.296;2023-04-12T00:02:58;98847.28;;;3.04;81.49
64362;BME280;50685;53.346;-6.296;2023-04-12T00:05:29;98868.03;;;3.20;82.12
64362;BME280;50685;53.346;-6.296;2023-04-12T00:07:55;98913.91;;;3.49;81.98
64362;BME280;50685;53.346;-6.296;2023-04-12T00:10:25;98913.03;;;3.50;81.99
64362;BME280;50685;53.346;-6.296;2023-04-12T00:12:52;98870.56;;;3.26;82.06
64362;BME280;50685;53.346;-6.296;2023-04-12T00:15:17;98891.38;;;3.37;81.83
64362;BME280;50685;53.346;-6.296;2023-04-12T00:17:43;98933.06;;;3.52;81.94
64362;BME280;50685;53.346;-6.296;2023-04-12T00:20:13;98858.56;;;3.11;81.98
64362;BME280;50685;53.346;-6.296;2023-04-12T00:22:40;98841.13;;;3.10;82.06
64362;BME280;50685;53.346;-6.296;2023-04-12T00:25:09;98834.13;;;3.09;82.01
64362;BME280;50685;53.346;-6.296;2023-04-12T00:27:35;98918.22;;;3.51;82.35
64362;BME280;50685;53.346;-6.296;2023-04-12T00:30:01;98840.13;;;3.16;82.30
64362;BME280;50685;53.346;-6.296;2023-04-12T00:32:28;98900.03;;;3.42;81.71
64362;BME280;50685;53.346;-6.296;2023-04-12T00:34:53;98876.63;;;3.30;81.63
64362;BME280;50685;53.346;-6.296;2023-04-12T00:37:19;98861.88;;;3.22;81.24
64362;BME280;50685;53.346;-6.296;2023-04-12T00:39:45;98843.69;;;3.15;81.05
64362;BME280;50685;53.346;-6.296;2023-04-12T00:42:10;98856.69;;;3.19;80.48
64362;BME280;50685;53.346;-6.296;2023-04-12T00:44:36;98835.09;;;3.05;80.32
64362;BME280;50685;53.346;-6.296;2023-04-12T00:47:05;98865.41;;;3.21;80.13
64362;BME280;50685;53.346;-6.296;2023-04-12T00:49:32;98843.00;;;3.00;80.19
64362;BME280;50685;53.346;-6.296;2023-04-12T00:52:06;98886.16;;;3.37;79.45
64362;BME280;50685;53.346;-6.296;2023-04-12T00:54:34;98854.97;;;3.18;79.66
64362;BME280;50685;53.346;-6.296;2023-04-12T00:57:03;98851.63;;;3.09;79.37
64362;BME280;50685;53.346;-6.296;2023-04-12T00:59:29;98838.63;;;3.02;79.51
64362;BME280;50685;53.346;-6.296;2023-04-12T01:01:55;98823.94;;;2.89;79.14
64362;BME280;50685;53.346;-6.296;2023-04-12T01:04:21;98820.44;;;2.88;79.39
64362;BME280;50685;53.346;-6.296;2023-04-12T01:07:09;98855.94;;;3.10;79.65
64362;BME280;50685;53.346;-6.296;2023-04-12T01:10:17;98880.25;;;3.19;79.91
64362;BME280;50685;53.346;-6.296;2023-04-12T01:13:20;98871.53;;;3.19;79.60
64362;BME280;50685;53.346;-6.296;2023-04-12T01:16:27;98856.91;;;3.04;79.70
64362;BME280;50685;53.346;-6.296;2023-04-12T01:18:58;98804.91;;;2.76;78.77
64362;BME280;50685;53.346;-6.296;2023-04-12T01:21:40;98836.00;;;3.01;78.78
64362;BME280;50685;53.346;-6.296;2023-04-12T01:24:54;98866.28;;;3.22;78.95
64362;BME280;50685;53.346;-6.296;2023-04-12T01:27:44;98797.06;;;2.76;79.50
64362;BME280;50685;53.346;-6.296;2023-04-12T01:30:12;98802.31;;;2.75;78.98
64362;BME280;50685;53.346;-6.296;2023-04-12T01:32:39;98852.44;;;3.12;78.73
64362;BME280;50685;53.346;-6.296;2023-04-12T01:35:12;98798.81;;;2.74;78.31
64362;BME280;50685;53.346;-6.296;2023-04-12T01:37:43;98855.06;;;3.12;78.17
64362;BME280;50685;53.346;-6.296;2023-04-12T01:40:11;98819.50;;;2.94;78.44
64362;BME280;50685;53.346;-6.296;2023-04-12T01:42:37;98828.22;;;2.96;77.71
64362;BME280;50685;53.346;-6.296;2023-04-12T01:45:04;98770.91;;;2.75;77.27
64362;BME280;50685;53.346;-6.296;2023-04-12T01:47:31;98759.59;;;2.72;76.10
64362;BME280;50685;53.346;-6.296;2023-04-12T01:53:11;98768.22;;;2.81;75.33
64362;BME280;50685;53.346;-6.296;2023-04-12T01:55:38;98799.41;;;2.98;76.28
64362;BME280;50685;53.346;-6.296;2023-04-12T01:58:07;98801.97;;;2.99;76.88
64362;BME280;50685;53.346;-6.296;2023-04-12T02:00:35;98772.69;;;2.72;76.94
64362;BME280;50685;53.346;-6.296;2023-04-12T02:03:03;98762.28;;;2.66;77.45
64362;BME280;50685;53.346;-6.296;2023-04-12T02:05:32;98733.66;;;2.55;77.48
64362;BME280;50685;53.346;-6.296;2023-04-12T02:07:59;98761.47;;;2.63;78.02
64362;BME280;50685;53.346;-6.296;2023-04-12T02:10:30;98736.22;;;2.60;78.47
64362;BME280;50685;53.346;-6.296;2023-04-12T02:13:00;98712.72;;;2.55;78.44
64362;BME280;50685;53.346;-6.296;2023-04-12T02:15:28;98719.72;;;2.55;78.99
64362;BME280;50685;53.346;-6.296;2023-04-12T02:17:54;98707.47;;;2.59;79.36
64362;BME280;50685;53.346;-6.296;2023-04-12T02:20:21;98759.41;;;2.85;79.52
64362;BME280;50685;53.346;-6.296;2023-04-12T02:22:48;98774.16;;;2.92;79.79
64362;BME280;50685;53.346;-6.296;2023-04-12T02:25:14;98718.78;;;2.59;79.70
64362;BME280;50685;53.346;-6.296;2023-04-12T02:27:43;98691.84;;;2.52;79.48
64362;BME280;50685;53.346;-6.296;2023-04-12T02:30:09;98689.22;;;2.52;80.06
64362;BME280;50685;53.346;-6.296;2023-04-12T02:32:35;98672.69;;;2.50;79.90
64362;BME280;50685;53.346;-6.296;2023-04-12T02:35:12;98694.41;;;2.55;79.76
64362;BME280;50685;53.346;-6.296;2023-04-12T02:37:39;98686.66;;;2.51;80.10
64362;BME280;50685;53.346;-6.296;2023-04-12T02:40:05;98675.97;;;2.65;80.34
64362;BME280;50685;53.346;-6.296;2023-04-12T02:42:34;98675.16;;;2.61;80.39
64362;BME280;50685;53.346;-6.296;2023-04-12T02:45:00;98718.41;;;2.84;80.44
64362;BME280;50685;53.346;-6.296;2023-04-12T02:47:25;98644.03;;;2.43;80.82
64362;BME280;50685;53.346;-6.296;2023-04-12T02:49:53;98690.59;;;2.78;80.80
64362;BME280;50685;53.346;-6.296;2023-04-12T02:52:19;98619.59;;;2.44;80.62
64362;BME280;50685;53.346;-6.296;2023-04-12T02:54:45;98637.69;;;2.57;79.98
64362;BME280;50685;53.346;-6.296;2023-04-12T02:57:13;98663.44;;;2.85;79.81
64362;BME280;50685;53.346;-6.296;2023-04-12T02:59:40;98624.59;;;2.57;80.20
64362;BME280;50685;53.346;-6.296;2023-04-12T03:02:06;98600.34;;;2.48;80.29
64362;BME280;50685;53.346;-6.296;2023-04-12T03:04:32;98584.63;;;2.48;80.60
64362;BME280;50685;53.346;-6.296;2023-04-12T03:06:58;98597.69;;;2.49;80.45
64362;BME280;50685;53.346;-6.296;2023-04-12T03:09:26;98564.66;;;2.42;80.52
64362;BME280;50685;53.346;-6.296;2023-04-12T03:11:52;98612.31;;;2.64;80.64
64362;BME280;50685;53.346;-6.296;2023-04-12T03:14:20;98614.63;;;2.81;80.62
64362;BME280;50685;53.346;-6.296;2023-04-12T03:16:49;98540.31;;;2.40;79.94
64362;BME280;50685;53.346;-6.296;2023-04-12T03:19:16;98593.88;;;2.69;79.54
64362;BME280;50685;53.346;-6.296;2023-04-12T03:21:41;98615.47;;;2.83;79.67
64362;BME280;50685;53.346;-6.296;2023-04-12T03:24:07;98605.88;;;2.82;79.14
64362;BME280;50685;53.346;-6.296;2023-04-12T03:26:33;98562.78;;;2.50;78.59
64362;BME280;50685;53.346;-6.296;2023-04-12T03:29:00;98579.97;;;2.67;78.77
64362;BME280;50685;53.346;-6.296;2023-04-12T03:31:26;98535.88;;;2.44;78.72
64362;BME280;50685;53.346;-6.296;2023-04-12T03:33:52;98588.44;;;2.81;78.60
64362;BME280;50685;53.346;-6.296;2023-04-12T03:36:18;98521.13;;;2.38;78.85
64362;BME280;50685;53.346;-6.296;2023-04-12T03:38:47;98520.31;;;2.34;79.15
64362;BME280;50685;53.346;-6.296;2023-04-12T03:41:12;98518.66;;;2.30;79.24
64362;BME280;50685;53.346;-6.296;2023-04-12T03:43:38;98560.00;;;2.61;78.69
64362;BME280;50685;53.346;-6.296;2023-04-12T03:46:04;98535.63;;;2.57;78.37
64362;BME280;50685;53.346;-6.296;2023-04-12T03:48:30;98555.50;;;2.68;78.58
64362;BME280;50685;53.346;-6.296;2023-04-12T03:50:56;98514.06;;;2.45;78.84
64362;BME280;50685;53.346;-6.296;2023-04-12T03:53:24;98500.19;;;2.41;78.21
64362;BME280;50685;53.346;-6.296;2023-04-12T03:55:51;98554.44;;;2.80;78.85
64362;BME280;50685;53.346;-6.296;2023-04-12T03:58:19;98564.91;;;2.80;79.09
64362;BME280;50685;53.346;-6.296;2023-04-12T04:00:45;98480.03;;;2.46;78.70
64362;BME280;50685;53.346;-6.296;2023-04-12T04:03:16;98472.25;;;2.41;77.86
64362;BME280;50685;53.346;-6.296;2023-04-12T04:05:41;98461.94;;;2.34;77.59
64362;BME280;50685;53.346;-6.296;2023-04-12T04:08:07;98468.78;;;2.41;78.00
64362;BME280;50685;53.346;-6.296;2023-04-12T04:10:33;98496.34;;;2.61;77.05
64362;BME280;50685;53.346;-6.296;2023-04-12T04:13:01;98457.41;;;2.44;76.70
64362;BME280;50685;53.346;-6.296;2023-04-12T04:15:27;98493.47;;;2.75;76.91
64362;BME280;50685;53.346;-6.296;2023-04-12T04:17:53;98459.88;;;2.51;75.60
64362;BME280;50685;53.346;-6.296;2023-04-12T04:20:19;98457.78;;;2.70;75.42
64362;BME280;50685;53.346;-6.296;2023-04-12T04:22:45;98446.38;;;2.75;75.45
64362;BME280;50685;53.346;-6.296;2023-04-12T04:25:14;98416.06;;;2.63;74.71
64362;BME280;50685;53.346;-6.296;2023-04-12T04:27:41;98463.25;;;3.03;74.30
64362;BME280;50685;53.346;-6.296;2023-04-12T04:30:09;98425.31;;;2.81;74.15
64362;BME280;50685;53.346;-6.296;2023-04-12T04:32:36;98434.63;;;2.94;74.09
64362;BME280;50685;53.346;-6.296;2023-04-12T04:35:02;98390.63;;;2.69;74.04
64362;BME280;50685;53.346;-6.296;2023-04-12T04:37:28;98412.19;;;2.82;74.54
64362;BME280;50685;53.346;-6.296;2023-04-12T04:39:59;98379.41;;;2.63;74.64
64362;BME280;50685;53.346;-6.296;2023-04-12T04:42:26;98374.19;;;2.63;74.32
64362;BME280;50685;53.346;-6.296;2023-04-12T04:44:53;98358.47;;;2.64;74.50
64362;BME280;50685;53.346;-6.296;2023-04-12T04:47:27;98399.72;;;2.94;74.28
64362;BME280;50685;53.346;-6.296;2023-04-12T04:49:58;98396.72;;;3.14;73.65
64362;BME280;50685;53.346;-6.296;2023-04-12T04:52:24;98376.81;;;3.05;72.96
64362;BME280;50685;53.346;-6.296;2023-04-12T04:54:50;98322.44;;;2.77;72.82
64362;BME280;50685;53.346;-6.296;2023-04-12T04:57:16;98374.69;;;3.22;72.39
64362;BME280;50685;53.346;-6.296;2023-04-12T04:59:41;98296.97;;;2.85;72.50
64362;BME280;50685;53.346;-6.296;2023-04-12T05:02:09;98275.28;;;2.79;72.30
64362;BME280;50685;53.346;-6.296;2023-04-12T05:04:35;98300.19;;;2.97;72.02
64362;BME280;50685;53.346;-6.296;2023-04-12T05:07:01;98336.44;;;3.15;72.16
64362;BME280;50685;53.346;-6.296;2023-04-12T05:09:27;98279.25;;;2.97;71.46
64362;BME280;50685;53.346;-6.296;2023-04-12T05:11:52;98333.25;;;3.40;71.00
64362;BME280;50685;53.346;-6.296;2023-04-12T05:14:18;98256.38;;;3.05;71.53
64362;BME280;50685;53.346;-6.296;2023-04-12T05:16:44;98260.44;;;3.18;71.53
64362;BME280;50685;53.346;-6.296;2023-04-12T05:19:09;98250.91;;;3.14;70.20
64362;BME280;50685;53.346;-6.296;2023-04-12T05:21:35;98262.81;;;3.28;70.67
64362;BME280;50685;53.346;-6.296;2023-04-12T05:24:00;98222.34;;;3.05;70.03
64362;BME280;50685;53.346;-6.296;2023-04-12T05:26:26;98223.88;;;3.14;69.32
64362;BME280;50685;53.346;-6.296;2023-04-12T05:28:52;98190.03;;;3.06;68.29
64362;BME280;50685;53.346;-6.296;2023-04-12T05:31:17;98179.56;;;3.04;68.04
64362;BME280;50685;53.346;-6.296;2023-04-12T05:33:43;98222.41;;;3.36;68.59
64362;BME280;50685;53.346;-6.296;2023-04-12T05:36:10;98196.50;;;3.26;68.30
64362;BME280;50685;53.346;-6.296;2023-04-12T05:38:35;98233.31;;;3.56;67.56
64362;BME280;50685;53.346;-6.296;2023-04-12T05:41:01;98180.59;;;3.33;67.69
64362;BME280;50685;53.346;-6.296;2023-04-12T05:43:30;98199.22;;;3.56;67.30
64362;BME280;50685;53.346;-6.296;2023-04-12T05:45:56;98164.56;;;3.46;66.96
64362;BME280;50685;53.346;-6.296;2023-04-12T05:48:21;98200.28;;;3.81;66.45
64362;BME280;50685;53.346;-6.296;2023-04-12T05:50:51;98147.59;;;3.59;66.42
64362;BME280;50685;53.346;-6.296;2023-04-12T05:53:16;98144.69;;;3.70;66.53
64362;BME280;50685;53.346;-6.296;2023-04-12T05:55:42;98120.31;;;3.66;67.20
64362;BME280;50685;53.346;-6.296;2023-04-12T05:58:07;98107.88;;;3.73;66.94
64362;BME280;50685;53.346;-6.296;2023-04-12T06:00:34;98104.31;;;3.76;66.77
64362;BME280;50685;53.346;-6.296;2023-04-12T06:02:59;98129.94;;;3.97;67.57
64362;BME280;50685;53.346;-6.296;2023-04-12T06:05:25;98102.28;;;3.85;67.83
64362;BME280;50685;53.346;-6.296;2023-04-12T06:07:51;98061.53;;;3.75;67.87
64362;BME280;50685;53.346;-6.296;2023-04-12T06:10:16;98061.41;;;3.80;68.40
64362;BME280;50685;53.346;-6.296;2023-04-12T06:12:42;98033.66;;;3.73;67.96
64362;BME280;50685;53.346;-6.296;2023-04-12T06:15:08;98076.34;;;4.06;68.18
64362;BME280;50685;53.346;-6.296;2023-04-12T06:17:34;98090.59;;;4.26;68.30
64362;BME280;50685;53.346;-6.296;2023-04-12T06:20:01;98086.19;;;4.26;68.79
64362;BME280;50685;53.346;-6.296;2023-04-12T06:22:29;98072.19;;;4.27;69.10
64362;BME280;50685;53.346;-6.296;2023-04-12T06:24:55;98031.84;;;4.03;69.12
64362;BME280;50685;53.346;-6.296;2023-04-12T06:27:20;98037.91;;;4.05;69.82
64362;BME280;50685;53.346;-6.296;2023-04-12T06:29:46;98014.41;;;4.02;70.59
64362;BME280;50685;53.346;-6.296;2023-04-12T06:32:12;97992.81;;;3.94;71.25
64362;BME280;50685;53.346;-6.296;2023-04-12T06:34:37;98026.13;;;4.18;72.51
64362;BME280;50685;53.346;-6.296;2023-04-12T06:37:03;98036.53;;;4.22;73.50
64362;BME280;50685;53.346;-6.296;2023-04-12T06:39:28;97988.66;;;3.86;74.43
64362;BME280;50685;53.346;-6.296;2023-04-12T06:41:54;97960.28;;;3.71;75.40
64362;BME280;50685;53.346;-6.296;2023-04-12T06:44:21;97953.81;;;3.54;76.23
64362;BME280;50685;53.346;-6.296;2023-04-12T06:46:47;97948.91;;;3.44;77.19
64362;BME280;50685;53.346;-6.296;2023-04-12T06:49:13;97926.72;;;3.26;78.25
64362;BME280;50685;53.346;-6.296;2023-04-12T06:51:38;97961.41;;;3.34;79.53
64362;BME280;50685;53.346;-6.296;2023-04-12T06:54:03;97986.47;;;3.43;81.38
64362;BME280;50685;53.346;-6.296;2023-04-12T06:56:29;97945.69;;;3.04;83.14
64362;BME280;50685;53.346;-6.296;2023-04-12T06:58:55;97916.59;;;2.83;83.61
64362;BME280;50685;53.346;-6.296;2023-04-12T07:01:20;97943.31;;;2.96;85.30
64362;BME280;50685;53.346;-6.296;2023-04-12T07:03:46;97927.91;;;2.84;86.67
64362;BME280;50685;53.346;-6.296;2023-04-12T07:06:12;97916.84;;;2.74;87.50
64362;BME280;50685;53.346;-6.296;2023-04-12T07:08:37;97901.41;;;2.65;88.23
64362;BME280;50685;53.346;-6.296;2023-04-12T07:11:06;97885.78;;;2.62;88.84
64362;BME280;50685;53.346;-6.296;2023-04-12T07:13:31;97903.84;;;2.71;90.17
64362;BME280;50685;53.346;-6.296;2023-04-12T07:15:57;97887.44;;;2.66;90.58
64362;BME280;50685;53.346;-6.296;2023-04-12T07:18:25;97867.56;;;2.59;90.06
64362;BME280;50685;53.346;-6.296;2023-04-12T07:20:53;97876.78;;;2.72;90.63
64362;BME280;50685;53.346;-6.296;2023-04-12T07:23:20;97859.56;;;2.65;90.93
64362;BME280;50685;53.346;-6.296;2023-04-12T07:25:45;97846.59;;;2.60;90.57
64362;BME280;50685;53.346;-6.296;2023-04-12T07:28:11;97851.47;;;2.72;91.11
64362;BME280;50685;53.346;-6.296;2023-04-12T07:30:40;97838.50;;;2.68;91.69
64362;BME280;50685;53.346;-6.296;2023-04-12T07:33:06;97828.81;;;2.71;91.72
64362;BME280;50685;53.346;-6.296;2023-04-12T07:35:32;97827.88;;;2.74;91.78
64362;BME280;50685;53.346;-6.296;2023-04-12T07:37:58;97824.28;;;2.78;92.28
64362;BME280;50685;53.346;-6.296;2023-04-12T07:40:25;97812.00;;;2.80;92.01
64362;BME280;50685;53.346;-6.296;2023-04-12T07:42:51;97822.06;;;2.94;92.80
64362;BME280;50685;53.346;-6.296;2023-04-12T07:45:16;97819.31;;;2.99;91.95
64362;BME280;50685;53.346;-6.296;2023-04-12T07:47:42;97842.31;;;3.17;92.14
64362;BME280;50685;53.346;-6.296;2023-04-12T07:50:07;97807.00;;;3.01;92.25
64362;BME280;50685;53.346;-6.296;2023-04-12T07:52:33;97808.59;;;3.07;92.25
64362;BME280;50685;53.346;-6.296;2023-04-12T07:54:59;97798.97;;;3.07;91.67
64362;BME280;50685;53.346;-6.296;2023-04-12T07:57:25;97830.56;;;3.31;91.48
64362;BME280;50685;53.346;-6.296;2023-04-12T07:59:52;97806.34;;;3.22;91.78
64362;BME280;50685;53.346;-6.296;2023-04-12T08:02:18;97792.22;;;3.28;91.98
64362;BME280;50685;53.346;-6.296;2023-04-12T08:04:52;97791.16;;;3.34;92.43
64362;BME280;50685;53.346;-6.296;2023-04-12T08:07:19;97806.38;;;3.49;92.10
64362;BME280;50685;53.346;-6.296;2023-04-12T08:09:46;97824.19;;;3.65;92.27
64362;BME280;50685;53.346;-6.296;2023-04-12T08:12:12;97822.81;;;3.81;92.65
64362;BME280;50685;53.346;-6.296;2023-04-12T08:14:37;97806.25;;;3.79;92.05
64362;BME280;50685;53.346;-6.296;2023-04-12T08:17:03;97827.19;;;4.06;92.34
64362;BME280;50685;53.346;-6.296;2023-04-12T08:19:28;97801.94;;;4.04;91.93
64362;BME280;50685;53.346;-6.296;2023-04-12T08:21:54;97821.22;;;4.28;91.42
64362;BME280;50685;53.346;-6.296;2023-04-12T08:24:19;97801.53;;;4.40;91.24
64362;BME280;50685;53.346;-6.296;2023-04-12T08:26:45;97811.53;;;4.54;90.45
64362;BME280;50685;53.346;-6.296;2023-04-12T08:29:11;97816.50;;;4.61;89.48
64362;BME280;50685;53.346;-6.296;2023-04-12T08:31:40;97811.53;;;4.54;89.36
64362;BME280;50685;53.346;-6.296;2023-04-12T08:34:06;97814.28;;;4.50;90.06
64362;BME280;50685;53.346;-6.296;2023-04-12T08:36:31;97816.88;;;4.50;90.02
64362;BME280;50685;53.346;-6.296;2023-04-12T08:38:58;97813.75;;;4.41;90.04
64362;BME280;50685;53.346;-6.296;2023-04-12T08:41:24;97815.31;;;4.46;90.46
64362;BME280;50685;53.346;-6.296;2023-04-12T08:43:50;97818.69;;;4.48;90.92
64362;BME280;50685;53.346;-6.296;2023-04-12T08:46:16;97819.81;;;4.43;91.24
64362;BME280;50685;53.346;-6.296;2023-04-12T08:48:46;97820.03;;;4.37;91.53
64362;BME280;50685;53.346;-6.296;2023-04-12T08:51:13;97828.06;;;4.32;92.53
64362;BME280;50685;53.346;-6.296;2023-04-12T08:53:40;97850.38;;;4.44;92.81
64362;BME280;50685;53.346;-6.296;2023-04-12T08:56:08;97843.13;;;4.50;92.71
64362;BME280;50685;53.346;-6.296;2023-04-12T08:58:38;97833.50;;;4.51;92.96
64362;BME280;50685;53.346;-6.296;2023-04-12T09:01:09;97852.34;;;4.62;92.68
64362;BME280;50685;53.346;-6.296;2023-04-12T09:03:35;97833.75;;;4.43;92.93
64362;BME280;50685;53.346;-6.296;2023-04-12T09:06:02;97836.22;;;4.48;93.17
64362;BME280;50685;53.346;-6.296;2023-04-12T09:08:27;97873.81;;;4.74;91.89
64362;BME280;50685;53.346;-6.296;2023-04-12T09:10:53;97855.00;;;4.61;92.09
64362;BME280;50685;53.346;-6.296;2023-04-12T09:13:33;97881.69;;;4.74;92.34
64362;BME280;50685;53.346;-6.296;2023-04-12T09:16:00;97900.81;;;4.77;92.58
64362;BME280;50685;53.346;-6.296;2023-04-12T09:18:25;97858.81;;;4.52;91.89
64362;BME280;50685;53.346;-6.296;2023-04-12T09:21:07;97858.56;;;4.60;92.12
64362;BME280;50685;53.346;-6.296;2023-04-12T09:23:33;97909.38;;;5.06;91.56
64362;BME280;50685;53.346;-6.296;2023-04-12T09:26:02;97872.16;;;4.95;90.44
64362;BME280;50685;53.346;-6.296;2023-04-12T09:28:29;97862.00;;;4.86;90.14
64362;BME280;50685;53.346;-6.296;2023-04-12T09:30:58;97883.91;;;5.08;89.90
64362;BME280;50685;53.346;-6.296;2023-04-12T09:33:35;97884.56;;;5.37;88.30
64362;BME280;50685;53.346;-6.296;2023-04-12T09:36:05;97913.38;;;5.85;87.05
64362;BME280;50685;53.346;-6.296;2023-04-12T09:38:33;97888.06;;;6.04;84.93
64362;BME280;50685;53.346;-6.296;2023-04-12T09:41:17;97899.72;;;6.19;84.11
64362;BME280;50685;53.346;-6.296;2023-04-12T09:43:43;97888.06;;;6.04;84.15
64362;BME280;50685;53.346;-6.296;2023-04-12T09:46:13;97862.88;;;5.76;82.08
64362;BME280;50685;53.346;-6.296;2023-04-12T09:48:39;97883.09;;;5.74;83.51
64362;BME280;50685;53.346;-6.296;2023-04-12T09:51:08;97928.44;;;6.03;83.15
64362;BME280;50685;53.346;-6.296;2023-04-12T09:53:37;97891.09;;;5.71;82.04
64362;BME280;50685;53.346;-6.296;2023-04-12T09:56:08;97917.63;;;5.87;81.66
64362;BME280;50685;53.346;-6.296;2023-04-12T09:58:35;97890.50;;;5.87;80.78
64362;BME280;50685;53.346;-6.296;2023-04-12T10:01:02;97880.16;;;5.82;80.99
64362;BME280;50685;53.346;-6.296;2023-04-12T10:03:28;97897.22;;;5.94;80.50
64362;BME280;50685;53.346;-6.296;2023-04-12T10:05:54;97894.19;;;5.83;80.06
64362;BME280;50685;53.346;-6.296;2023-04-12T10:08:21;97922.06;;;6.09;79.70
64362;BME280;50685;53.346;-6.296;2023-04-12T10:10:47;97917.78;;;6.06;80.61
64362;BME280;50685;53.346;-6.296;2023-04-12T10:13:13;97913.38;;;6.07;80.74
64362;BME280;50685;53.346;-6.296;2023-04-12T10:15:44;97908.84;;;6.10;79.21
64362;BME280;50685;53.346;-6.296;2023-04-12T10:18:10;97906.53;;;6.03;79.45
64362;BME280;50685;53.346;-6.296;2023-04-12T10:20:38;97897.09;;;5.97;79.74
64362;BME280;50685;53.346;-6.296;2023-04-12T10:23:06;97908.00;;;6.10;79.83
64362;BME280;50685;53.346;-6.296;2023-04-12T10:25:32;97918.50;;;6.32;77.65
64362;BME280;50685;53.346;-6.296;2023-04-12T10:28:13;97939.22;;;6.61;75.37
64362;BME280;50685;53.346;-6.296;2023-04-12T10:30:39;97964.97;;;6.74;75.02
64362;BME280;50685;53.346;-6.296;2023-04-12T10:35:54;97959.75;;;6.73;74.02
64362;BME280;50685;53.346;-6.296;2023-04-12T10:38:22;97918.97;;;6.42;73.59
64362;BME280;50685;53.346;-6.296;2023-04-12T10:43:50;97928.03;;;6.35;71.47
64362;BME280;50685;53.346;-6.296;2023-04-12T10:49:10;97974.25;;;6.63;71.81
64362;BME280;50685;53.346;-6.296;2023-04-12T10:51:36;98014.56;;;6.85;73.06
64362;BME280;50685;53.346;-6.296;2023-04-12T10:56:42;97965.53;;;6.40;72.58
64362;BME280;50685;53.346;-6.296;2023-04-12T10:59:14;98008.41;;;6.64;72.56
64362;BME280;50685;53.346;-6.296;2023-04-12T11:01:41;98003.16;;;6.64;72.84
64362;BME280;50685;53.346;-6.296;2023-04-12T11:04:26;97964.31;;;6.69;70.34
64362;BME280;50685;53.346;-6.296;2023-04-12T11:09:25;97993.41;;;7.07;70.41
64362;BME280;50685;53.346;-6.296;2023-04-12T11:11:56;98041.34;;;7.36;70.53
64362;BME280;50685;53.346;-6.296;2023-04-12T11:14:45;98060.06;;;7.30;70.99
64362;BME280;50685;53.346;-6.296;2023-04-12T11:19:38;98031.63;;;7.18;69.65
64362;BME280;50685;53.346;-6.296;2023-04-12T11:22:06;98035.28;;;7.34;68.83
64362;BME280;50685;53.346;-6.296;2023-04-12T11:24:36;98045.03;;;7.32;69.57
64362;BME280;50685;53.346;-6.296;2023-04-12T11:27:02;98030.28;;;7.28;68.35
64362;BME280;50685;53.346;-6.296;2023-04-12T11:29:27;98017.22;;;7.25;68.26
64362;BME280;50685;53.346;-6.296;2023-04-12T11:32:08;98047.91;;;7.47;67.41
64362;BME280;50685;53.346;-6.296;2023-04-12T11:34:36;98028.16;;;7.36;67.57
64362;BME280;50685;53.346;-6.296;2023-04-12T11:37:05;98062.25;;;7.60;67.32
64362;BME280;50685;53.346;-6.296;2023-04-12T11:39:38;98021.63;;;7.45;65.50
64362;BME280;50685;53.346;-6.296;2023-04-12T11:42:04;98104.28;;;7.84;66.43
64362;BME280;50685;53.346;-6.296;2023-04-12T11:44:33;98071.34;;;7.74;66.54
64362;BME280;50685;53.346;-6.296;2023-04-12T11:46:58;98052.34;;;7.46;67.42
64362;BME280;50685;53.346;-6.296;2023-04-12T11:49:45;98093.72;;;7.84;67.54
64362;BME280;50685;53.346;-6.296;2023-04-12T11:52:10;98088.38;;;7.66;67.39
64362;BME280;50685;53.346;-6.296;2023-04-12T11:54:40;98069.25;;;7.61;67.72
64362;BME280;50685;53.346;-6.296;2023-04-12T11:57:06;98113.34;;;7.97;67.06
64362;BME280;50685;53.346;-6.296;2023-04-12T11:59:32;98062.25;;;7.60;67.63
64362;BME280;50685;53.346;-6.296;2023-04-12T12:02:08;98106.91;;;7.84;67.11
64362;BME280;50685;53.346;-6.296;2023-04-12T12:04:39;98085.38;;;7.74;66.99
64362;BME280;50685;53.346;-6.296;2023-04-12T12:07:10;98076.28;;;7.61;67.62
64362;BME280;50685;53.346;-6.296;2023-04-12T12:09:45;98097.66;;;7.75;67.21
64362;BME280;50685;53.346;-6.296;2023-04-12T12:12:12;98071.09;;;7.59;67.93
64362;BME280;50685;53.346;-6.296;2023-04-12T12:14:58;98132.75;;;7.96;67.52
64362;BME280;50685;53.346;-6.296;2023-04-12T12:17:29;98101.06;;;7.77;68.02
64362;BME280;50685;53.346;-6.296;2023-04-12T12:19:57;98080.59;;;7.63;67.36
64362;BME280;50685;53.346;-6.296;2023-04-12T12:22:29;98095.03;;;7.54;68.13
64362;BME280;50685;53.346;-6.296;2023-04-12T12:24:57;98143.03;;;7.83;68.35
64362;BME280;50685;53.346;-6.296;2023-04-12T12:27:38;98087.63;;;7.44;67.35
64362;BME280;50685;53.346;-6.296;2023-04-12T12:30:11;98098.63;;;7.53;66.57
64362;BME280;50685;53.346;-6.296;2023-04-12T12:32:41;98097.28;;;7.43;67.46
64362;BME280;50685;53.346;-6.296;2023-04-12T12:35:15;98092.03;;;7.43;67.34
64362;BME280;50685;53.346;-6.296;2023-04-12T12:37:54;98085.25;;;7.37;66.25
64362;BME280;50685;53.346;-6.296;2023-04-12T12:40:28;98133.41;;;7.62;67.23
64362;BME280;50685;53.346;-6.296;2023-04-12T12:42:57;98115.63;;;7.46;67.62
64362;BME280;50685;53.346;-6.296;2023-04-12T12:45:24;98102.19;;;7.52;67.82
64362;BME280;50685;53.346;-6.296;2023-04-12T12:50:25;98133.47;;;7.81;66.81
64362;BME280;50685;53.346;-6.296;2023-04-12T12:52:53;98112.78;;;7.51;67.74
64362;BME280;50685;53.346;-6.296;2023-04-12T12:55:19;98180.16;;;7.79;68.99
64362;BME280;50685;53.346;-6.296;2023-04-12T12:57:50;98121.28;;;7.37;70.89
64362;BME280;50685;53.346;-6.296;2023-04-12T13:00:17;98208.00;;;7.86;71.20
64362;BME280;50685;53.346;-6.296;2023-04-12T13:02:45;98194.72;;;7.87;71.67
64362;BME280;50685;53.346;-6.296;2023-04-12T13:05:18;98185.84;;;7.69;73.09
64362;BME280;50685;53.346;-6.296;2023-04-12T13:07:45;98224.34;;;7.53;74.49
64362;BME280;50685;53.346;-6.296;2023-04-12T13:10:14;98166.25;;;6.91;75.31
64362;BME280;50685;53.346;-6.296;2023-04-12T13:12:39;98210.16;;;6.90;75.91
64362;BME280;50685;53.346;-6.296;2023-04-12T13:15:06;98227.53;;;6.96;77.82
64362;BME280;50685;53.346;-6.296;2023-04-12T13:17:36;98187.69;;;6.59;78.77
64362;BME280;50685;53.346;-6.296;2023-04-12T13:20:08;98217.00;;;6.50;79.64
64362;BME280;50685;53.346;-6.296;2023-04-12T13:22:37;98191.34;;;6.08;80.30
64362;BME280;50685;53.346;-6.296;2023-04-12T13:25:03;98202.78;;;6.07;79.42
64362;BME280;50685;53.346;-6.296;2023-04-12T13:27:29;98239.31;;;6.16;79.83